sensor_id;sensor_type;location;lat;lon;timestamp;pressure;altitude;pressure_sealevel;temperature;humidity
42727;BME280;28372;56.832;60.658;2023-04-30T00:01:38;98158.09;;;8.42;29.27
42727;BME280;28372;56.832;60.658;2023-04-30T00:04:06;98162.25;;;8.39;29.46
42727;BME280;28372;56.832;60.658;2023-04-30T00:06:33;98154.47;;;8.50;29.84
42727;BME280;28372;56.832;60.658;2023-04-30T00:09:01;98145.94;;;8.32;29.76
42727;BME280;28372;56.832;60.658;2023-04-30T00:11:29;98160.75;;;8.26;29.94
42727;BME280;28372;56.832;60.658;2023-04-30T00:13:56;98160.44;;;7.83;30.74
42727;BME280;28372;56.832;60.658;2023-04-30T00:16:24;98160.59;;;7.46;31.39
42727;BME280;28372;56.832;60.658;2023-04-30T00:18:52;98155.41;;;7.53;31.25
42727;BME280;28372;56.832;60.658;2023-04-30T00:21:19;98160.53;;;7.59;31.03
42727;BME280;28372;56.832;60.658;2023-04-30T00:23:47;98161.47;;;7.50;31.14
42727;BME280;28372;56.832;60.658;2023-04-30T00:26:14;98165.09;;;7.42;31.71
42727;BME280;28372;56.832;60.658;2023-04-30T00:28:45;98176.34;;;7.60;31.64
42727;BME280;28372;56.832;60.658;2023-04-30T00:31:13;98201.69;;;7.71;32.24
42727;BME280;28372;56.832;60.658;2023-04-30T00:33:40;98225.22;;;7.75;31.80
42727;BME280;28372;56.832;60.658;2023-04-30T00:36:09;98241.59;;;7.82;32.44
42727;BME280;28372;56.832;60.658;2023-04-30T00:38:36;98232.59;;;7.90;32.37
42727;BME280;28372;56.832;60.658;2023-04-30T00:41:04;98227.09;;;7.86;32.32
42727;BME280;28372;56.832;60.658;2023-04-30T00:43:32;98237.28;;;7.93;31.69
42727;BME280;28372;56.832;60.658;2023-04-30T00:46:00;98236.50;;;7.93;32.57
42727;BME280;28372;56.832;60.658;2023-04-30T00:48:29;98223.66;;;8.02;31.81
42727;BME280;28372;56.832;60.658;2023-04-30T00:50:57;98226.53;;;8.09;31.32
42727;BME280;28372;56.832;60.658;2023-04-30T00:53:25;98231.63;;;8.27;30.75
42727;BME280;28372;56.832;60.658;2023-04-30T00:55:53;98230.03;;;8.54;30.27
42727;BME280;28372;56.832;60.658;2023-04-30T00:58:21;98234.75;;;8.57;30.20
42727;BME280;28372;56.832;60.658;2023-04-30T01:00:48;98240.56;;;8.75;29.22
42727;BME280;28372;56.832;60.658;2023-04-30T01:03:16;98217.81;;;8.72;30.20
42727;BME280;28372;56.832;60.658;2023-04-30T01:05:44;98215.19;;;8.76;29.95
42727;BME280;28372;56.832;60.658;2023-04-30T01:08:11;98238.69;;;8.76;29.74
42727;BME280;28372;56.832;60.658;2023-04-30T01:13:39;98225.34;;;8.99;29.63
42727;BME280;28372;56.832;60.658;2023-04-30T01:16:19;98224.75;;;8.89;29.03
42727;BME280;28372;56.832;60.658;2023-04-30T01:19:26;98222.69;;;9.34;27.94
42727;BME280;28372;56.832;60.658;2023-04-30T01:21:58;98228.91;;;9.19;28.66
42727;BME280;28372;56.832;60.658;2023-04-30T01:27:31;98241.22;;;9.36;28.47
42727;BME280;28372;56.832;60.658;2023-04-30T01:30:06;98229.06;;;9.26;28.65
42727;BME280;28372;56.832;60.658;2023-04-30T01:32:35;98229.84;;;9.11;28.82
42727;BME280;28372;56.832;60.658;2023-04-30T01:35:03;98239.44;;;9.08;29.03
42727;BME280;28372;56.832;60.658;2023-04-30T01:37:44;98246.78;;;9.27;28.69
42727;BME280;28372;56.832;60.658;2023-04-30T01:40:23;98252.19;;;9.27;28.64
42727;BME280;28372;56.832;60.658;2023-04-30T01:48:27;98266.47;;;9.28;29.16
42727;BME280;28372;56.832;60.658;2023-04-30T01:51:15;98255.53;;;9.56;28.75
42727;BME280;28372;56.832;60.658;2023-04-30T01:53:46;98288.25;;;9.35;28.94
42727;BME280;28372;56.832;60.658;2023-04-30T01:56:37;98289.94;;;9.59;28.81
42727;BME280;28372;56.832;60.658;2023-04-30T01:59:08;98296.28;;;9.51;28.83
42727;BME280;28372;56.832;60.658;2023-04-30T02:01:35;98295.06;;;9.64;28.56
42727;BME280;28372;56.832;60.658;2023-04-30T02:04:03;98290.44;;;9.65;29.12
42727;BME280;28372;56.832;60.658;2023-04-30T02:06:31;98293.00;;;9.77;28.92
42727;BME280;28372;56.832;60.658;2023-04-30T02:08:59;98299.94;;;9.94;27.97
42727;BME280;28372;56.832;60.658;2023-04-30T02:11:31;98296.09;;;10.15;27.71
42727;BME280;28372;56.832;60.658;2023-04-30T02:13:59;98283.00;;;9.97;27.98
42727;BME280;28372;56.832;60.658;2023-04-30T02:16:26;98295.53;;;10.05;27.45
42727;BME280;28372;56.832;60.658;2023-04-30T02:18:54;98294.63;;;10.17;27.52
42727;BME280;28372;56.832;60.658;2023-04-30T02:21:22;98296.25;;;10.41;26.91
42727;BME280;28372;56.832;60.658;2023-04-30T02:23:49;98290.56;;;10.47;26.75
42727;BME280;28372;56.832;60.658;2023-04-30T02:26:17;98291.81;;;10.33;27.28
42727;BME280;28372;56.832;60.658;2023-04-30T02:28:45;98288.91;;;10.22;27.58
42727;BME280;28372;56.832;60.658;2023-04-30T02:31:12;98290.91;;;10.25;27.25
42727;BME280;28372;56.832;60.658;2023-04-30T02:33:40;98281.13;;;10.37;27.87
42727;BME280;28372;56.832;60.658;2023-04-30T02:36:07;98295.03;;;10.39;27.18
42727;BME280;28372;56.832;60.658;2023-04-30T02:38:35;98286.34;;;10.49;27.29
42727;BME280;28372;56.832;60.658;2023-04-30T02:41:02;98279.88;;;10.77;26.90
42727;BME280;28372;56.832;60.658;2023-04-30T02:43:30;98276.16;;;11.08;26.38
42727;BME280;28372;56.832;60.658;2023-04-30T02:45:59;98281.38;;;11.47;26.22
42727;BME280;28372;56.832;60.658;2023-04-30T02:48:26;98263.25;;;11.82;25.97
42727;BME280;28372;56.832;60.658;2023-04-30T02:50:54;98280.44;;;12.24;25.34
42727;BME280;28372;56.832;60.658;2023-04-30T02:53:21;98278.78;;;12.49;24.83
42727;BME280;28372;56.832;60.658;2023-04-30T02:55:49;98286.78;;;12.76;24.80
42727;BME280;28372;56.832;60.658;2023-04-30T02:58:17;98287.03;;;13.05;24.83
42727;BME280;28372;56.832;60.658;2023-04-30T03:00:45;98278.31;;;13.33;24.52
42727;BME280;28372;56.832;60.658;2023-04-30T03:03:12;98290.50;;;13.50;23.62
42727;BME280;28372;56.832;60.658;2023-04-30T03:05:40;98288.34;;;13.78;23.34
42727;BME280;28372;56.832;60.658;2023-04-30T03:08:08;98290.75;;;14.01;23.72
42727;BME280;28372;56.832;60.658;2023-04-30T03:10:35;98302.84;;;14.11;22.87
42727;BME280;28372;56.832;60.658;2023-04-30T03:13:03;98298.66;;;14.31;23.47
42727;BME280;28372;56.832;60.658;2023-04-30T03:15:33;98294.78;;;14.43;22.72
42727;BME280;28372;56.832;60.658;2023-04-30T03:18:00;98302.22;;;14.53;22.54
42727;BME280;28372;56.832;60.658;2023-04-30T03:20:28;98291.75;;;14.63;22.71
42727;BME280;28372;56.832;60.658;2023-04-30T03:22:55;98285.56;;;14.73;22.51
42727;BME280;28372;56.832;60.658;2023-04-30T03:25:24;98274.31;;;14.93;22.31
42727;BME280;28372;56.832;60.658;2023-04-30T03:27:51;98276.25;;;15.06;22.27
42727;BME280;28372;56.832;60.658;2023-04-30T03:30:19;98297.25;;;15.31;22.08
42727;BME280;28372;56.832;60.658;2023-04-30T03:32:47;98294.50;;;15.60;22.28
42727;BME280;28372;56.832;60.658;2023-04-30T03:35:15;98301.47;;;15.83;21.54
42727;BME280;28372;56.832;60.658;2023-04-30T03:37:42;98306.09;;;16.04;21.56
42727;BME280;28372;56.832;60.658;2023-04-30T03:40:11;98301.59;;;16.50;21.81
42727;BME280;28372;56.832;60.658;2023-04-30T03:42:40;98300.97;;;16.94;20.46
42727;BME280;28372;56.832;60.658;2023-04-30T03:45:08;98306.03;;;17.41;20.92
42727;BME280;28372;56.832;60.658;2023-04-30T03:47:36;98306.38;;;17.85;20.17
42727;BME280;28372;56.832;60.658;2023-04-30T03:50:04;98319.06;;;18.41;19.67
42727;BME280;28372;56.832;60.658;2023-04-30T03:52:32;98310.69;;;18.79;19.12
42727;BME280;28372;56.832;60.658;2023-04-30T03:54:59;98299.09;;;19.22;19.20
42727;BME280;28372;56.832;60.658;2023-04-30T03:57:28;98294.84;;;19.41;19.06
42727;BME280;28372;56.832;60.658;2023-04-30T03:59:57;98299.31;;;19.99;18.26
42727;BME280;28372;56.832;60.658;2023-04-30T04:02:25;98301.31;;;20.55;18.10
42727;BME280;28372;56.832;60.658;2023-04-30T04:04:53;98298.19;;;21.22;17.44
42727;BME280;28372;56.832;60.658;2023-04-30T04:07:20;98301.69;;;21.85;17.08
42727;BME280;28372;56.832;60.658;2023-04-30T04:09:48;98299.72;;;22.28;16.54
42727;BME280;28372;56.832;60.658;2023-04-30T04:12:16;98307.63;;;22.68;16.06
42727;BME280;28372;56.832;60.658;2023-04-30T04:14:43;98311.59;;;23.19;15.81
42727;BME280;28372;56.832;60.658;2023-04-30T04:17:12;98303.06;;;23.26;15.56
42727;BME280;28372;56.832;60.658;2023-04-30T04:19:42;98304.50;;;23.31;15.23
42727;BME280;28372;56.832;60.658;2023-04-30T04:22:10;98320.59;;;23.32;15.55
42727;BME280;28372;56.832;60.658;2023-04-30T04:24:38;98304.81;;;23.33;14.74
42727;BME280;28372;56.832;60.658;2023-04-30T04:27:05;98304.25;;;23.73;15.12
42727;BME280;28372;56.832;60.658;2023-04-30T04:29:34;98295.34;;;24.44;14.49
42727;BME280;28372;56.832;60.658;2023-04-30T04:32:02;98294.94;;;24.55;14.11
42727;BME280;28372;56.832;60.658;2023-04-30T04:34:32;98290.03;;;24.91;13.90
42727;BME280;28372;56.832;60.658;2023-04-30T04:37:00;98302.69;;;25.10;13.94
42727;BME280;28372;56.832;60.658;2023-04-30T04:39:28;98304.00;;;25.65;14.05
42727;BME280;28372;56.832;60.658;2023-04-30T04:41:56;98306.44;;;25.91;13.70
42727;BME280;28372;56.832;60.658;2023-04-30T04:44:24;98291.84;;;26.09;13.29
42727;BME280;28372;56.832;60.658;2023-04-30T04:46:53;98282.69;;;26.36;12.97
42727;BME280;28372;56.832;60.658;2023-04-30T04:49:22;98293.03;;;26.26;13.25
42727;BME280;28372;56.832;60.658;2023-04-30T04:51:51;98297.78;;;26.35;13.21
42727;BME280;28372;56.832;60.658;2023-04-30T04:54:19;98300.75;;;26.22;13.22
42727;BME280;28372;56.832;60.658;2023-04-30T04:56:47;98302.44;;;26.10;13.28
42727;BME280;28372;56.832;60.658;2023-04-30T04:59:16;98304.16;;;25.34;13.40
42727;BME280;28372;56.832;60.658;2023-04-30T05:01:47;98291.94;;;25.12;13.73
42727;BME280;28372;56.832;60.658;2023-04-30T05:04:15;98285.94;;;25.23;13.63
42727;BME280;28372;56.832;60.658;2023-04-30T05:06:44;98299.47;;;25.12;13.61
42727;BME280;28372;56.832;60.658;2023-04-30T05:09:12;98281.88;;;24.46;14.03
42727;BME280;28372;56.832;60.658;2023-04-30T05:11:40;98276.84;;;24.01;14.43
42727;BME280;28372;56.832;60.658;2023-04-30T05:14:07;98270.53;;;24.54;14.52
42727;BME280;28372;56.832;60.658;2023-04-30T05:16:35;98279.41;;;24.89;14.33
42727;BME280;28372;56.832;60.658;2023-04-30T05:19:02;98282.94;;;25.68;13.78
42727;BME280;28372;56.832;60.658;2023-04-30T05:21:30;98270.38;;;26.28;13.37
42727;BME280;28372;56.832;60.658;2023-04-30T05:23:58;98286.91;;;26.98;13.19
42727;BME280;28372;56.832;60.658;2023-04-30T05:26:25;98284.69;;;27.36;12.74
42727;BME280;28372;56.832;60.658;2023-04-30T05:28:53;98298.53;;;27.60;12.50
42727;BME280;28372;56.832;60.658;2023-04-30T05:31:20;98296.28;;;27.74;12.44
42727;BME280;28372;56.832;60.658;2023-04-30T05:33:48;98304.06;;;27.84;12.32
42727;BME280;28372;56.832;60.658;2023-04-30T05:36:15;98298.88;;;27.77;12.11
42727;BME280;28372;56.832;60.658;2023-04-30T05:38:43;98306.81;;;27.21;12.14
42727;BME280;28372;56.832;60.658;2023-04-30T05:41:11;98310.19;;;27.01;12.56
42727;BME280;28372;56.832;60.658;2023-04-30T05:43:39;98290.44;;;26.65;12.86
42727;BME280;28372;56.832;60.658;2023-04-30T05:46:06;98302.72;;;26.40;13.11
42727;BME280;28372;56.832;60.658;2023-04-30T05:48:34;98309.81;;;26.32;12.96
42727;BME280;28372;56.832;60.658;2023-04-30T05:51:01;98316.91;;;26.14;13.25
42727;BME280;28372;56.832;60.658;2023-04-30T05:53:29;98303.38;;;25.79;13.36
42727;BME280;28372;56.832;60.658;2023-04-30T05:55:56;98294.16;;;25.45;13.64
42727;BME280;28372;56.832;60.658;2023-04-30T05:58:24;98292.88;;;25.19;13.88
42727;BME280;28372;56.832;60.658;2023-04-30T06:00:52;98294.72;;;25.12;13.95
42727;BME280;28372;56.832;60.658;2023-04-30T06:03:20;98294.94;;;24.87;13.99
42727;BME280;28372;56.832;60.658;2023-04-30T06:05:48;98297.06;;;24.83;14.05
42727;BME280;28372;56.832;60.658;2023-04-30T06:08:16;98290.19;;;24.87;13.98
42727;BME280;28372;56.832;60.658;2023-04-30T06:10:43;98297.41;;;24.94;14.04
42727;BME280;28372;56.832;60.658;2023-04-30T06:13:11;98292.78;;;24.91;14.32
42727;BME280;28372;56.832;60.658;2023-04-30T06:15:40;98293.91;;;25.03;14.22
42727;BME280;28372;56.832;60.658;2023-04-30T06:18:08;98291.25;;;24.90;14.08
42727;BME280;28372;56.832;60.658;2023-04-30T06:20:36;98282.66;;;24.88;14.18
42727;BME280;28372;56.832;60.658;2023-04-30T06:23:03;98284.63;;;24.78;14.42
42727;BME280;28372;56.832;60.658;2023-04-30T06:25:31;98292.63;;;24.85;14.11
42727;BME280;28372;56.832;60.658;2023-04-30T06:27:58;98293.88;;;24.93;14.11
42727;BME280;28372;56.832;60.658;2023-04-30T06:30:27;98282.34;;;24.95;14.21
42727;BME280;28372;56.832;60.658;2023-04-30T06:32:56;98294.00;;;24.90;14.34
42727;BME280;28372;56.832;60.658;2023-04-30T06:35:24;98288.13;;;24.78;14.29
42727;BME280;28372;56.832;60.658;2023-04-30T06:37:51;98296.00;;;24.80;14.60
42727;BME280;28372;56.832;60.658;2023-04-30T06:40:19;98300.44;;;24.46;14.22
42727;BME280;28372;56.832;60.658;2023-04-30T06:42:46;98315.47;;;23.78;14.76
42727;BME280;28372;56.832;60.658;2023-04-30T06:45:14;98303.78;;;23.74;14.85
42727;BME280;28372;56.832;60.658;2023-04-30T06:47:41;98299.22;;;23.58;14.90
42727;BME280;28372;56.832;60.658;2023-04-30T06:50:10;98288.50;;;23.13;15.03
42727;BME280;28372;56.832;60.658;2023-04-30T06:52:38;98283.78;;;22.87;15.39
42727;BME280;28372;56.832;60.658;2023-04-30T06:55:06;98291.94;;;22.39;15.53
42727;BME280;28372;56.832;60.658;2023-04-30T06:57:34;98287.16;;;21.55;16.48
42727;BME280;28372;56.832;60.658;2023-04-30T07:00:05;98290.94;;;21.62;16.41
42727;BME280;28372;56.832;60.658;2023-04-30T07:02:32;98277.50;;;21.93;16.42
42727;BME280;28372;56.832;60.658;2023-04-30T07:05:00;98295.16;;;22.51;15.81
42727;BME280;28372;56.832;60.658;2023-04-30T07:07:28;98304.41;;;22.83;15.67
42727;BME280;28372;56.832;60.658;2023-04-30T07:09:56;98313.03;;;22.98;15.45
42727;BME280;28372;56.832;60.658;2023-04-30T07:12:24;98317.09;;;23.19;15.60
42727;BME280;28372;56.832;60.658;2023-04-30T07:14:51;98314.38;;;23.41;15.34
42727;BME280;28372;56.832;60.658;2023-04-30T07:17:19;98307.31;;;23.53;15.19
42727;BME280;28372;56.832;60.658;2023-04-30T07:19:47;98298.22;;;23.17;15.15
42727;BME280;28372;56.832;60.658;2023-04-30T07:22:14;98304.53;;;22.79;15.44
42727;BME280;28372;56.832;60.658;2023-04-30T07:24:42;98289.53;;;22.67;15.46
42727;BME280;28372;56.832;60.658;2023-04-30T07:27:09;98277.53;;;22.74;15.47
42727;BME280;28372;56.832;60.658;2023-04-30T07:29:37;98282.69;;;22.59;15.84
42727;BME280;28372;56.832;60.658;2023-04-30T07:32:04;98283.47;;;22.04;16.19
42727;BME280;28372;56.832;60.658;2023-04-30T07:34:32;98292.09;;;21.77;16.26
42727;BME280;28372;56.832;60.658;2023-04-30T07:36:59;98289.84;;;21.26;16.84
42727;BME280;28372;56.832;60.658;2023-04-30T07:39:28;98291.56;;;21.20;16.80
42727;BME280;28372;56.832;60.658;2023-04-30T07:41:55;98276.44;;;20.95;16.94
42727;BME280;28372;56.832;60.658;2023-04-30T07:44:23;98272.91;;;20.78;16.99
42727;BME280;28372;56.832;60.658;2023-04-30T07:46:50;98284.72;;;20.22;17.62
42727;BME280;28372;56.832;60.658;2023-04-30T07:49:18;98281.72;;;19.96;17.96
42727;BME280;28372;56.832;60.658;2023-04-30T07:51:46;98280.38;;;20.05;17.75
42727;BME280;28372;56.832;60.658;2023-04-30T07:54:13;98280.47;;;19.57;18.41
42727;BME280;28372;56.832;60.658;2023-04-30T07:56:41;98277.72;;;19.81;17.88
42727;BME280;28372;56.832;60.658;2023-04-30T07:59:08;98275.16;;;19.90;18.14
42727;BME280;28372;56.832;60.658;2023-04-30T08:01:36;98290.59;;;19.60;18.05
42727;BME280;28372;56.832;60.658;2023-04-30T08:04:04;98302.81;;;18.57;19.39
42727;BME280;28372;56.832;60.658;2023-04-30T08:06:31;98290.44;;;18.73;19.07
42727;BME280;28372;56.832;60.658;2023-04-30T08:08:59;98282.16;;;18.76;18.70
42727;BME280;28372;56.832;60.658;2023-04-30T08:11:26;98265.84;;;17.73;19.91
42727;BME280;28372;56.832;60.658;2023-04-30T08:13:54;98268.59;;;18.11;20.10
42727;BME280;28372;56.832;60.658;2023-04-30T08:16:21;98269.31;;;18.46;19.53
42727;BME280;28372;56.832;60.658;2023-04-30T08:18:49;98261.38;;;18.79;18.72
42727;BME280;28372;56.832;60.658;2023-04-30T08:21:16;98276.78;;;18.69;19.00
42727;BME280;28372;56.832;60.658;2023-04-30T08:23:44;98254.91;;;18.11;19.75
42727;BME280;28372;56.832;60.658;2023-04-30T08:26:12;98273.94;;;17.87;19.82
42727;BME280;28372;56.832;60.658;2023-04-30T08:28:39;98260.81;;;17.33;20.15
42727;BME280;28372;56.832;60.658;2023-04-30T08:31:07;98256.50;;;16.90;20.95
42727;BME280;28372;56.832;60.658;2023-04-30T08:33:34;98259.44;;;17.10;20.66
42727;BME280;28372;56.832;60.658;2023-04-30T08:36:02;98253.00;;;17.35;20.32
42727;BME280;28372;56.832;60.658;2023-04-30T08:38:30;98245.75;;;17.14;20.46
42727;BME280;28372;56.832;60.658;2023-04-30T08:41:08;98259.78;;;17.58;20.57
42727;BME280;28372;56.832;60.658;2023-04-30T08:43:37;98259.50;;;17.03;20.47
42727;BME280;28372;56.832;60.658;2023-04-30T08:46:05;98273.38;;;16.71;21.13
42727;BME280;28372;56.832;60.658;2023-04-30T08:48:33;98248.25;;;16.94;20.71
42727;BME280;28372;56.832;60.658;2023-04-30T08:51:02;98274.22;;;16.64;21.17
42727;BME280;28372;56.832;60.658;2023-04-30T08:53:33;98271.69;;;16.91;21.19
42727;BME280;28372;56.832;60.658;2023-04-30T08:56:03;98289.56;;;17.03;20.93
42727;BME280;28372;56.832;60.658;2023-04-30T08:58:30;98279.28;;;16.62;21.28
42727;BME280;28372;56.832;60.658;2023-04-30T09:00:58;98269.78;;;16.81;21.25
42727;BME280;28372;56.832;60.658;2023-04-30T09:03:26;98283.28;;;17.10;21.01
42727;BME280;28372;56.832;60.658;2023-04-30T09:05:54;98286.28;;;17.23;20.64
42727;BME280;28372;56.832;60.658;2023-04-30T09:08:43;98280.53;;;17.90;20.02
42727;BME280;28372;56.832;60.658;2023-04-30T09:11:27;98278.00;;;17.72;20.25
42727;BME280;28372;56.832;60.658;2023-04-30T09:14:00;98278.34;;;17.36;20.54
42727;BME280;28372;56.832;60.658;2023-04-30T09:16:29;98271.72;;;17.37;20.85
42727;BME280;28372;56.832;60.658;2023-04-30T09:18:59;98279.50;;;17.38;20.39
42727;BME280;28372;56.832;60.658;2023-04-30T09:21:31;98274.94;;;17.66;20.14
42727;BME280;28372;56.832;60.658;2023-04-30T09:24:01;98280.41;;;17.66;19.88
42727;BME280;28372;56.832;60.658;2023-04-30T09:26:34;98254.97;;;17.69;20.02
42727;BME280;28372;56.832;60.658;2023-04-30T09:29:03;98267.06;;;17.72;20.12
42727;BME280;28372;56.832;60.658;2023-04-30T09:31:39;98273.63;;;17.78;20.13
42727;BME280;28372;56.832;60.658;2023-04-30T09:34:07;98271.50;;;17.58;19.95
42727;BME280;28372;56.832;60.658;2023-04-30T09:36:34;98270.66;;;17.65;19.81
42727;BME280;28372;56.832;60.658;2023-04-30T09:39:06;98273.88;;;17.56;19.96
42727;BME280;28372;56.832;60.658;2023-04-30T09:41:38;98267.03;;;17.34;20.28
42727;BME280;28372;56.832;60.658;2023-04-30T09:44:05;98272.16;;;17.32;19.98
42727;BME280;28372;56.832;60.658;2023-04-30T09:46:34;98268.31;;;17.25;20.32
42727;BME280;28372;56.832;60.658;2023-04-30T09:49:05;98282.28;;;17.35;19.75
42727;BME280;28372;56.832;60.658;2023-04-30T09:51:33;98275.19;;;17.41;19.82
42727;BME280;28372;56.832;60.658;2023-04-30T09:54:02;98267.91;;;17.27;20.14
42727;BME280;28372;56.832;60.658;2023-04-30T09:56:33;98281.91;;;17.33;20.32
42727;BME280;28372;56.832;60.658;2023-04-30T09:59:04;98272.38;;;17.48;19.77
42727;BME280;28372;56.832;60.658;2023-04-30T10:01:34;98279.88;;;17.40;20.18
42727;BME280;28372;56.832;60.658;2023-04-30T10:04:06;98271.66;;;17.44;20.36
42727;BME280;28372;56.832;60.658;2023-04-30T10:06:34;98268.00;;;17.16;19.83
42727;BME280;28372;56.832;60.658;2023-04-30T10:09:04;98268.53;;;17.42;19.97
42727;BME280;28372;56.832;60.658;2023-04-30T10:11:33;98268.00;;;17.12;20.07
42727;BME280;28372;56.832;60.658;2023-04-30T10:14:11;98264.34;;;16.81;20.48
42727;BME280;28372;56.832;60.658;2023-04-30T10:16:43;98263.56;;;16.81;20.57
42727;BME280;28372;56.832;60.658;2023-04-30T10:19:24;98263.56;;;16.10;20.72
42727;BME280;28372;56.832;60.658;2023-04-30T10:21:52;98261.06;;;15.13;22.00
42727;BME280;28372;56.832;60.658;2023-04-30T10:24:20;98261.38;;;14.43;22.93
42727;BME280;28372;56.832;60.658;2023-04-30T10:26:48;98255.03;;;13.99;22.94
42727;BME280;28372;56.832;60.658;2023-04-30T10:29:16;98277.31;;;13.56;23.32
42727;BME280;28372;56.832;60.658;2023-04-30T10:31:46;98270.81;;;13.68;23.04
42727;BME280;28372;56.832;60.658;2023-04-30T10:40:21;98249.97;;;14.01;22.95
42727;BME280;28372;56.832;60.658;2023-04-30T10:42:49;98252.31;;;13.99;22.80
42727;BME280;28372;56.832;60.658;2023-04-30T10:45:16;98249.59;;;14.02;23.05
42727;BME280;28372;56.832;60.658;2023-04-30T10:47:46;98240.19;;;13.82;23.32
42727;BME280;28372;56.832;60.658;2023-04-30T10:50:14;98258.81;;;13.80;23.61
42727;BME280;28372;56.832;60.658;2023-04-30T10:52:42;98258.88;;;13.94;23.33
42727;BME280;28372;56.832;60.658;2023-04-30T10:55:10;98237.97;;;14.09;23.14
42727;BME280;28372;56.832;60.658;2023-04-30T10:57:41;98247.69;;;14.10;22.82
42727;BME280;28372;56.832;60.658;2023-04-30T11:02:38;98247.91;;;13.73;23.67
42727;BME280;28372;56.832;60.658;2023-04-30T11:05:15;98242.06;;;13.67;23.51
42727;BME280;28372;56.832;60.658;2023-04-30T11:10:17;98226.59;;;13.75;23.72
42727;BME280;28372;56.832;60.658;2023-04-30T11:12:49;98210.53;;;13.51;23.86
42727;BME280;28372;56.832;60.658;2023-04-30T11:15:18;98226.56;;;13.78;23.76
42727;BME280;28372;56.832;60.658;2023-04-30T11:17:47;98239.88;;;14.05;23.19
42727;BME280;28372;56.832;60.658;2023-04-30T11:20:20;98240.66;;;14.02;23.49
42727;BME280;28372;56.832;60.658;2023-04-30T11:23:10;98228.28;;;14.15;23.20
42727;BME280;28372;56.832;60.658;2023-04-30T11:25:43;98221.06;;;13.57;23.83
42727;BME280;28372;56.832;60.658;2023-04-30T11:28:17;98223.16;;;13.22;24.27
42727;BME280;28372;56.832;60.658;2023-04-30T11:30:58;98235.53;;;13.19;24.41
42727;BME280;28372;56.832;60.658;2023-04-30T11:33:28;98222.34;;;13.14;24.40
42727;BME280;28372;56.832;60.658;2023-04-30T11:35:57;98226.69;;;13.30;24.48
42727;BME280;28372;56.832;60.658;2023-04-30T11:38:35;98228.56;;;13.18;24.30
42727;BME280;28372;56.832;60.658;2023-04-30T11:41:04;98226.53;;;13.08;24.42
42727;BME280;28372;56.832;60.658;2023-04-30T11:43:33;98245.78;;;12.85;24.77
42727;BME280;28372;56.832;60.658;2023-04-30T11:46:11;98222.06;;;12.78;24.90
42727;BME280;28372;56.832;60.658;2023-04-30T11:48:40;98216.19;;;12.73;25.08
42727;BME280;28372;56.832;60.658;2023-04-30T11:51:22;98213.63;;;12.46;25.19
42727;BME280;28372;56.832;60.658;2023-04-30T11:53:51;98204.69;;;12.87;24.66
42727;BME280;28372;56.832;60.658;2023-04-30T11:56:23;98223.09;;;12.66;25.06
42727;BME280;28372;56.832;60.658;2023-04-30T11:58:52;98202.44;;;12.51;25.29
42727;BME280;28372;56.832;60.658;2023-04-30T12:01:26;98188.72;;;12.33;25.79
42727;BME280;28372;56.832;60.658;2023-04-30T12:03:56;98199.44;;;12.60;25.13
42727;BME280;28372;56.832;60.658;2023-04-30T12:06:25;98185.97;;;12.78;24.96
42727;BME280;28372;56.832;60.658;2023-04-30T12:08:58;98189.94;;;12.88;24.91
42727;BME280;28372;56.832;60.658;2023-04-30T12:11:37;98198.69;;;12.66;25.61
42727;BME280;28372;56.832;60.658;2023-04-30T12:14:11;98217.44;;;12.38;25.78
42727;BME280;28372;56.832;60.658;2023-04-30T12:16:50;98206.81;;;12.63;25.47
42727;BME280;28372;56.832;60.658;2023-04-30T12:19:21;98209.34;;;12.45;25.74
42727;BME280;28372;56.832;60.658;2023-04-30T12:21:52;98209.06;;;12.16;26.26
42727;BME280;28372;56.832;60.658;2023-04-30T12:24:21;98202.91;;;12.19;26.09
42727;BME280;28372;56.832;60.658;2023-04-30T12:26:52;98201.94;;;12.38;26.11
42727;BME280;28372;56.832;60.658;2023-04-30T12:29:21;98192.97;;;12.34;26.12
42727;BME280;28372;56.832;60.658;2023-04-30T12:31:49;98190.06;;;12.12;25.99
42727;BME280;28372;56.832;60.658;2023-04-30T12:34:19;98219.84;;;12.09;26.49
42727;BME280;28372;56.832;60.658;2023-04-30T12:36:47;98185.41;;;12.13;26.05
42727;BME280;28372;56.832;60.658;2023-04-30T12:39:16;98180.91;;;12.28;26.00
42727;BME280;28372;56.832;60.658;2023-04-30T12:41:45;98198.28;;;12.20;26.15
42727;BME280;28372;56.832;60.658;2023-04-30T12:44:19;98192.72;;;11.75;26.96
42727;BME280;28372;56.832;60.658;2023-04-30T12:46:47;98175.25;;;11.72;26.53
42727;BME280;28372;56.832;60.658;2023-04-30T12:51:57;98177.59;;;12.04;26.31
42727;BME280;28372;56.832;60.658;2023-04-30T12:54:30;98177.25;;;12.09;26.29
42727;BME280;28372;56.832;60.658;2023-04-30T12:57:09;98185.38;;;12.09;26.35
42727;BME280;28372;56.832;60.658;2023-04-30T12:59:55;98213.16;;;12.37;25.73
42727;BME280;28372;56.832;60.658;2023-04-30T13:02:26;98179.22;;;12.12;26.14
42727;BME280;28372;56.832;60.658;2023-04-30T13:04:54;98139.38;;;12.20;25.81
42727;BME280;28372;56.832;60.658;2023-04-30T13:07:23;98156.56;;;12.35;25.73
42727;BME280;28372;56.832;60.658;2023-04-30T13:09:50;98168.13;;;12.28;25.63
42727;BME280;28372;56.832;60.658;2023-04-30T13:12:19;98163.22;;;12.00;26.36
42727;BME280;28372;56.832;60.658;2023-04-30T13:14:46;98162.38;;;11.96;25.97
42727;BME280;28372;56.832;60.658;2023-04-30T13:17:14;98159.28;;;11.63;26.75
42727;BME280;28372;56.832;60.658;2023-04-30T13:19:42;98162.13;;;11.74;26.50
42727;BME280;28372;56.832;60.658;2023-04-30T13:22:09;98159.97;;;11.53;26.74
42727;BME280;28372;56.832;60.658;2023-04-30T13:24:37;98159.97;;;11.57;26.83
42727;BME280;28372;56.832;60.658;2023-04-30T13:27:05;98169.09;;;11.41;26.85
42727;BME280;28372;56.832;60.658;2023-04-30T13:29:32;98154.16;;;11.55;26.45